createdAt,value
2018-12-06T00:01:02.508Z,10.80
2018-12-06T00:03:35.154Z,11.33
2018-12-06T00:06:08.169Z,10.37
2018-12-06T00:08:40.972Z,10.13
2018-12-06T00:11:14.156Z,9.73
2018-12-06T00:13:49.691Z,11.73
2018-12-06T00:16:22.036Z,11.57
2018-12-06T00:19:10.780Z,10.87
2018-12-06T00:21:43.915Z,13.07
2018-12-06T00:24:20.509Z,13.37
2018-12-06T00:26:56.253Z,11.00
2018-12-06T00:29:28.778Z,12.30
2018-12-06T00:31:59.793Z,10.40
2018-12-06T00:34:32.673Z,10.50
2018-12-06T00:37:05.771Z,13.20
2018-12-06T00:39:36.796Z,12.80
2018-12-06T00:42:09.530Z,12.47
2018-12-06T00:44:46.112Z,12.87
2018-12-06T00:47:20.822Z,14.00
2018-12-06T00:52:23.029Z,15.20
2018-12-06T00:54:55.961Z,14.60
2018-12-06T00:57:28.842Z,13.00
2018-12-06T01:00:05.339Z,14.33
2018-12-06T01:02:40.954Z,14.23
2018-12-06T01:05:15.929Z,14.37
2018-12-06T01:07:48.582Z,15.03
2018-12-06T01:10:21.623Z,15.83
2018-12-06T01:12:56.976Z,17.03
2018-12-06T01:15:29.598Z,15.10
2018-12-06T01:18:02.556Z,17.67
2018-12-06T01:20:35.410Z,16.83
2018-12-06T01:23:10.788Z,16.80
2018-12-06T01:25:43.412Z,16.50
2018-12-06T01:28:16.020Z,17.70
2018-12-06T01:30:49.022Z,18.77
2018-12-06T01:33:24.431Z,17.20
2018-12-06T01:35:57.098Z,18.23
2018-12-06T01:38:30.116Z,19.90
2018-12-06T01:41:03.300Z,16.67
2018-12-06T01:43:38.851Z,17.43
2018-12-06T01:46:09.274Z,18.40
2018-12-06T01:48:45.048Z,20.20
2018-12-06T01:51:20.580Z,20.43
2018-12-06T01:53:55.588Z,18.97
2018-12-06T01:56:30.384Z,24.03
2018-12-06T01:59:02.978Z,19.53
2018-12-06T02:01:38.385Z,20.27
2018-12-06T02:04:10.866Z,20.73
2018-12-06T02:06:46.253Z,20.30
2018-12-06T02:09:21.305Z,18.00
2018-12-06T02:11:56.128Z,22.13
2018-12-06T02:14:28.658Z,20.23
2018-12-06T02:17:01.356Z,21.93
2018-12-06T02:19:34.015Z,24.20
2018-12-06T02:22:09.377Z,22.40
2018-12-06T02:24:41.726Z,20.67
2018-12-06T02:27:15.066Z,21.00
2018-12-06T02:29:56.400Z,23.07
2018-12-06T02:32:31.486Z,20.53
2018-12-06T02:35:03.993Z,21.73
2018-12-06T02:37:39.354Z,24.23
2018-12-06T02:40:12.074Z,23.37
2018-12-06T02:42:45.117Z,22.03
2018-12-06T02:45:18.035Z,23.63
2018-12-06T02:47:50.919Z,23.67
2018-12-06T02:50:22.062Z,23.47
2018-12-06T02:55:24.680Z,23.73
2018-12-06T02:57:59.968Z,21.90
2018-12-06T03:00:35.033Z,22.23
2018-12-06T03:03:07.670Z,23.23
2018-12-06T03:08:37.464Z,22.87
2018-12-06T03:11:08.576Z,25.57
2018-12-06T03:13:41.426Z,21.80
2018-12-06T03:16:16.787Z,24.57
2018-12-06T03:18:51.805Z,24.17
2018-12-06T03:21:26.548Z,22.27
2018-12-06T03:23:59.034Z,23.03
2018-12-06T03:26:35.257Z,23.60
2018-12-06T03:29:07.893Z,27.00
2018-12-06T03:31:40.656Z,23.90
2018-12-06T03:34:15.910Z,25.07
2018-12-06T03:36:50.742Z,27.23
2018-12-06T03:39:25.694Z,28.03
2018-12-06T03:41:58.153Z,27.90
2018-12-06T03:44:33.283Z,26.20
2018-12-06T03:47:06.547Z,25.87
2018-12-06T03:49:39.187Z,27.47
2018-12-06T03:52:12.453Z,25.40
2018-12-06T03:57:15.085Z,25.23
2018-12-06T03:59:48.058Z,25.50
2018-12-06T04:02:20.930Z,27.67
2018-12-06T04:04:56.431Z,23.87
2018-12-06T04:07:31.316Z,22.77
2018-12-06T04:10:04.211Z,20.93
2018-12-06T04:12:36.874Z,21.93
2018-12-06T04:15:09.935Z,22.10
2018-12-06T04:17:42.769Z,24.53
2018-12-06T04:20:15.544Z,26.33
2018-12-06T04:22:48.561Z,22.53
2018-12-06T04:25:24.033Z,25.67
2018-12-06T04:27:54.792Z,28.90
2018-12-06T04:30:27.832Z,26.27
2018-12-06T04:33:00.908Z,22.87
2018-12-06T04:35:33.971Z,28.63
2018-12-06T04:38:07.021Z,25.10
2018-12-06T04:40:38.096Z,25.77
2018-12-06T04:43:11.020Z,27.30
2018-12-06T04:45:47.357Z,23.70
2018-12-06T04:48:22.486Z,24.97
2018-12-06T04:50:58.548Z,23.47
2018-12-06T04:53:33.276Z,23.30
2018-12-06T04:58:35.303Z,23.93
2018-12-06T05:01:08.343Z,25.23
2018-12-06T05:03:41.571Z,22.23
2018-12-06T05:06:14.670Z,20.77
2018-12-06T05:08:49.490Z,22.13
2018-12-06T05:11:22.107Z,23.40
2018-12-06T05:13:53.581Z,23.90
2018-12-06T05:16:26.260Z,25.37
2018-12-06T05:19:01.969Z,25.30
2018-12-06T05:21:34.776Z,25.30
2018-12-06T05:24:07.941Z,23.67
2018-12-06T05:26:40.655Z,27.73
2018-12-06T05:29:15.908Z,25.30
2018-12-06T05:31:48.310Z,28.17
2018-12-06T05:34:23.702Z,27.47
2018-12-06T05:37:00.407Z,27.70
2018-12-06T05:39:35.255Z,32.43
2018-12-06T05:42:07.848Z,29.80
2018-12-06T05:44:40.510Z,31.20
2018-12-06T05:47:13.731Z,27.73
2018-12-06T05:49:49.119Z,34.13
2018-12-06T05:52:24.207Z,28.80
2018-12-06T05:54:56.783Z,33.47
2018-12-06T06:00:03.630Z,32.37
2018-12-06T06:02:36.132Z,34.70
2018-12-06T06:05:11.625Z,40.60
2018-12-06T06:07:44.047Z,38.80
2018-12-06T06:10:17.057Z,40.43
2018-12-06T06:12:49.766Z,40.67
2018-12-06T06:15:22.622Z,39.63
2018-12-06T06:17:58.196Z,35.27
2018-12-06T06:20:30.844Z,37.63
2018-12-06T06:23:03.960Z,38.03
2018-12-06T06:25:39.663Z,39.23
2018-12-06T06:28:12.916Z,38.30
2018-12-06T06:30:48.346Z,33.07
2018-12-06T06:33:23.067Z,33.43
2018-12-06T06:35:55.720Z,32.90
2018-12-06T06:38:28.981Z,28.17
2018-12-06T06:41:06.414Z,30.43
2018-12-06T06:43:38.989Z,27.43
2018-12-06T06:46:14.388Z,27.63
2018-12-06T06:48:49.443Z,26.27
2018-12-06T06:51:22.229Z,25.87
2018-12-06T06:53:57.908Z,27.90
2018-12-06T06:56:30.760Z,25.07
2018-12-06T07:01:32.059Z,30.60
2018-12-06T07:04:07.097Z,31.30
2018-12-06T07:06:40.703Z,31.83
2018-12-06T07:09:49.160Z,37.10
2018-12-06T07:12:21.629Z,40.13
2018-12-06T07:14:57.420Z,42.17
2018-12-06T07:17:32.187Z,40.67
2018-12-06T07:20:05.634Z,41.87
2018-12-06T07:22:45.388Z,43.97
2018-12-06T07:25:18.069Z,47.80
2018-12-06T07:27:51.213Z,52.47
2018-12-06T07:30:24.476Z,46.10
2018-12-06T07:32:57.520Z,46.27
2018-12-06T07:35:32.219Z,48.90
2018-12-06T07:38:05.327Z,45.97
2018-12-06T07:40:38.397Z,44.47
2018-12-06T07:43:13.905Z,45.07
2018-12-06T07:45:58.296Z,43.97
2018-12-06T07:48:28.971Z,40.53
2018-12-06T07:51:04.556Z,37.67
2018-12-06T07:53:37.271Z,42.50
2018-12-06T07:56:10.405Z,39.40
2018-12-06T07:58:43.627Z,50.23
2018-12-06T08:01:16.802Z,40.17
2018-12-06T08:03:52.312Z,36.23
2018-12-06T08:06:25.101Z,37.80
2018-12-06T08:09:00.697Z,37.33
2018-12-06T08:11:40.006Z,34.77
2018-12-06T08:14:14.733Z,35.87
2018-12-06T08:16:47.749Z,33.07
2018-12-06T08:19:23.135Z,33.93
2018-12-06T08:21:58.568Z,34.90
2018-12-06T08:24:29.720Z,33.67
2018-12-06T08:27:02.070Z,33.27
2018-12-06T08:29:38.570Z,36.73
2018-12-06T08:32:11.483Z,38.77
2018-12-06T08:34:44.582Z,37.67
2018-12-06T08:37:17.827Z,42.77
2018-12-06T08:39:58.869Z,40.53
2018-12-06T08:42:35.979Z,41.33
2018-12-06T08:45:09.344Z,46.33
2018-12-06T08:47:41.677Z,49.97
2018-12-06T08:50:11.576Z,53.33
2018-12-06T08:52:41.927Z,53.10
2018-12-06T08:55:11.286Z,54.17
2018-12-06T08:57:40.628Z,58.53
2018-12-06T09:00:12.041Z,63.60
2018-12-06T09:02:43.422Z,58.93
2018-12-06T09:05:13.000Z,58.60
2018-12-06T09:07:43.402Z,70.90
2018-12-06T09:10:12.349Z,67.00
2018-12-06T09:12:41.615Z,69.80
2018-12-06T09:15:10.941Z,61.43
2018-12-06T09:17:41.263Z,65.97
2018-12-06T09:20:10.792Z,61.83
2018-12-06T09:22:44.226Z,61.83
2018-12-06T09:25:23.070Z,54.23
2018-12-06T09:27:52.372Z,52.17
2018-12-06T09:30:21.632Z,53.23
2018-12-06T09:32:51.252Z,50.50
2018-12-06T09:35:24.675Z,43.80
2018-12-06T09:37:55.226Z,44.43
2018-12-06T09:40:30.520Z,41.10
2018-12-06T09:42:59.826Z,42.03
2018-12-06T09:45:29.224Z,47.67
2018-12-06T09:47:58.623Z,36.10
2018-12-06T09:50:27.851Z,53.00
2018-12-06T09:52:57.257Z,53.80
2018-12-06T09:55:26.613Z,54.80
2018-12-06T09:57:55.882Z,65.00
2018-12-06T10:00:28.328Z,69.30
2018-12-06T10:03:00.109Z,66.33
2018-12-06T10:05:54.150Z,80.07
2018-12-06T10:08:23.550Z,87.80
2018-12-06T10:10:52.898Z,82.27
2018-12-06T10:13:23.218Z,78.13
2018-12-06T10:15:53.569Z,78.87
2018-12-06T10:18:22.847Z,81.13
2018-12-06T10:20:52.089Z,88.83
2018-12-06T10:23:21.377Z,77.57
2018-12-06T10:25:50.788Z,95.50
2018-12-06T10:28:20.103Z,97.67
2018-12-06T10:30:49.344Z,93.27
2018-12-06T10:33:18.638Z,96.93
2018-12-06T10:35:47.900Z,103.80
2018-12-06T10:38:17.206Z,86.47
2018-12-06T10:40:46.483Z,94.00
2018-12-06T10:43:15.846Z,101.47
2018-12-06T10:45:58.734Z,103.63
2018-12-06T10:48:28.030Z,98.47
2018-12-06T10:51:13.139Z,92.07
2018-12-06T10:53:46.389Z,92.83
2018-12-06T10:56:23.576Z,88.60
2018-12-06T10:59:00.485Z,93.13
2018-12-06T11:01:36.806Z,92.73
2018-12-06T11:07:09.744Z,92.70
2018-12-06T11:12:39.577Z,80.00
2018-12-06T11:15:10.275Z,83.63
2018-12-06T11:17:50.087Z,80.60
2018-12-06T11:20:22.556Z,87.83
2018-12-06T11:22:53.528Z,85.60
2018-12-06T11:28:46.876Z,87.67
2018-12-06T11:31:19.594Z,76.53
2018-12-06T11:34:13.493Z,88.27
2018-12-06T11:36:45.877Z,86.20
2018-12-06T11:42:24.717Z,93.00
2018-12-06T11:51:03.914Z,88.60
2018-12-06T11:53:35.090Z,95.43
2018-12-06T11:56:18.518Z,96.30
2018-12-06T11:59:02.051Z,83.33
2018-12-06T12:01:35.251Z,88.00
2018-12-06T12:04:30.175Z,90.60
2018-12-06T12:06:59.654Z,85.43
2018-12-06T12:12:35.171Z,130.37
2018-12-06T12:15:19.647Z,93.10
2018-12-06T12:17:52.433Z,119.80
2018-12-06T12:23:27.011Z,63.37
2018-12-06T12:25:59.877Z,57.23
2018-12-06T12:28:45.301Z,55.80
2018-12-06T12:31:14.575Z,69.47
2018-12-06T12:33:43.876Z,63.60
2018-12-06T12:36:41.918Z,73.27
2018-12-06T12:42:17.876Z,41.63
2018-12-06T12:44:48.563Z,40.43
2018-12-06T12:47:23.884Z,43.70
2018-12-06T12:53:05.074Z,45.33
2018-12-06T12:55:39.673Z,34.93
2018-12-06T12:58:15.991Z,33.87
2018-12-06T13:00:48.728Z,30.37
2018-12-06T13:06:25.175Z,28.03
2018-12-06T13:08:56.654Z,32.60
2018-12-06T13:17:37.530Z,28.53
2018-12-06T13:20:10.738Z,29.17
2018-12-06T13:22:47.458Z,26.63
2018-12-06T13:25:45.980Z,26.87
2018-12-06T13:28:20.844Z,25.63
2018-12-06T13:30:54.451Z,26.47
2018-12-06T13:33:23.766Z,27.70
2018-12-06T13:35:56.465Z,26.40
2018-12-06T13:41:57.973Z,26.37
2018-12-06T13:44:30.617Z,26.50
2018-12-06T13:47:12.464Z,27.10
2018-12-06T13:49:45.145Z,24.67
2018-12-06T13:52:14.812Z,25.43
2018-12-06T13:55:10.859Z,26.90
2018-12-06T13:57:43.585Z,25.10
2018-12-06T14:00:16.152Z,20.90
2018-12-06T14:02:51.517Z,20.77
2018-12-06T14:08:26.400Z,21.23
2018-12-06T14:14:04.933Z,23.33
2018-12-06T14:16:50.090Z,24.77
2018-12-06T14:22:39.302Z,25.87
2018-12-06T14:25:14.789Z,23.67
2018-12-06T14:37:02.203Z,26.93
2018-12-06T14:39:33.149Z,24.50
2018-12-06T14:42:14.384Z,26.37
2018-12-06T14:44:47.272Z,29.67
2018-12-06T14:50:33.363Z,27.77
2018-12-06T14:53:04.674Z,28.57
2018-12-06T14:55:39.767Z,29.13
2018-12-06T14:58:15.536Z,29.77
2018-12-06T15:03:53.750Z,28.07
2018-12-06T15:06:28.675Z,27.10
2018-12-06T15:09:20.135Z,29.70
2018-12-06T15:11:52.883Z,27.60
2018-12-06T15:14:25.742Z,27.40
2018-12-06T15:16:58.373Z,28.37
2018-12-06T15:19:50.323Z,28.40
2018-12-06T15:25:26.069Z,31.83
2018-12-06T15:27:57.153Z,25.00
2018-12-06T15:30:27.867Z,37.97
2018-12-06T15:33:01.121Z,28.07
2018-12-06T15:35:34.121Z,26.90
2018-12-06T15:38:16.738Z,24.27
2018-12-06T15:40:49.814Z,24.63
2018-12-06T15:43:25.133Z,30.40
2018-12-06T15:45:59.923Z,24.90
2018-12-06T15:48:32.638Z,30.50
2018-12-06T15:51:05.873Z,29.23
2018-12-06T15:53:36.968Z,27.13
2018-12-06T15:56:08.330Z,26.97
2018-12-06T15:58:41.391Z,30.23
2018-12-06T16:01:18.899Z,28.63
2018-12-06T16:03:49.622Z,31.87
2018-12-06T16:06:33.658Z,32.23
2018-12-06T16:09:09.101Z,30.87
2018-12-06T16:11:41.451Z,31.03
2018-12-06T16:14:12.560Z,31.27
2018-12-06T16:19:14.389Z,30.20
2018-12-06T16:22:08.384Z,31.80
2018-12-06T16:24:57.900Z,36.90
2018-12-06T16:27:33.052Z,31.33
2018-12-06T16:30:09.311Z,34.53
2018-12-06T16:32:42.504Z,34.93
2018-12-06T16:35:26.132Z,37.47
2018-12-06T16:37:57.071Z,36.23
2018-12-06T16:40:26.473Z,32.10
2018-12-06T16:43:14.244Z,42.30
2018-12-06T16:45:46.852Z,32.93
2018-12-06T16:51:19.194Z,35.10
2018-12-06T16:53:51.881Z,31.67
2018-12-06T16:56:24.795Z,37.73
2018-12-06T16:58:58.058Z,37.93
2018-12-06T17:01:31.056Z,36.93
2018-12-06T17:07:09.972Z,35.23
2018-12-06T17:09:40.352Z,41.60
2018-12-06T17:12:34.169Z,36.63
2018-12-06T17:15:09.129Z,36.47
2018-12-06T17:18:00.602Z,39.30
2018-12-06T17:20:35.308Z,38.70
2018-12-06T17:23:07.788Z,37.47
2018-12-06T17:25:37.065Z,34.43
2018-12-06T17:28:18.167Z,37.53
2018-12-06T17:30:51.283Z,34.87
2018-12-06T17:33:22.359Z,34.53
2018-12-06T17:35:55.165Z,38.00
2018-12-06T17:38:53.126Z,32.00
2018-12-06T17:41:28.352Z,35.93
2018-12-06T17:47:01.368Z,33.40
2018-12-06T17:52:59.595Z,39.60
2018-12-06T17:58:38.832Z,31.93
2018-12-06T18:01:11.496Z,38.17
2018-12-06T18:03:44.599Z,34.13
2018-12-06T18:06:20.193Z,36.90
2018-12-06T18:08:57.962Z,32.20
2018-12-06T18:11:30.483Z,37.00
2018-12-06T18:14:01.610Z,34.93
2018-12-06T18:16:34.386Z,31.90
2018-12-06T18:19:07.394Z,37.20
2018-12-06T18:21:42.100Z,33.40
2018-12-06T18:24:18.791Z,35.83
2018-12-06T18:26:49.610Z,34.23
2018-12-06T18:29:20.770Z,33.37
2018-12-06T18:31:53.609Z,38.07
2018-12-06T18:34:28.883Z,33.20
2018-12-06T18:37:05.543Z,34.27
2018-12-06T18:39:42.207Z,33.40
2018-12-06T18:45:22.238Z,35.13
2018-12-06T18:47:55.559Z,31.83
2018-12-06T18:50:51.465Z,35.57
2018-12-06T18:53:26.574Z,31.70
2018-12-06T18:56:06.162Z,31.73
2018-12-06T18:58:41.219Z,38.67
2018-12-06T19:01:10.600Z,35.60
2018-12-06T19:03:45.568Z,31.67
2018-12-06T19:06:18.178Z,28.63
2018-12-06T19:09:02.042Z,32.07
2018-12-06T19:11:37.504Z,35.03
2018-12-06T19:14:12.399Z,28.57
2018-12-06T19:16:45.061Z,34.00
2018-12-06T19:19:17.683Z,27.60
2018-12-06T19:21:53.333Z,27.67
2018-12-06T19:24:27.543Z,31.73
2018-12-06T19:33:03.422Z,32.03
2018-12-06T19:35:36.415Z,32.27
2018-12-06T19:41:09.632Z,34.87
2018-12-06T19:46:41.462Z,31.10
2018-12-06T19:49:21.025Z,27.63
2018-12-06T19:54:54.298Z,30.03
2018-12-06T19:57:23.632Z,32.20
2018-12-06T19:59:52.927Z,30.33
2018-12-06T20:02:36.612Z,28.67
2018-12-06T20:08:08.983Z,29.00
2018-12-06T20:14:10.454Z,27.27
2018-12-06T20:19:57.851Z,28.63
2018-12-06T20:25:30.289Z,29.97
2018-12-06T20:28:02.836Z,26.90
2018-12-06T20:33:41.689Z,28.73
2018-12-06T20:39:43.581Z,29.20
2018-12-06T20:42:16.023Z,28.63
2018-12-06T20:44:57.584Z,30.23
2018-12-06T20:47:26.833Z,29.97
2018-12-06T20:52:59.168Z,27.10
2018-12-06T20:55:33.999Z,29.67
2018-12-06T20:58:03.358Z,30.07
2018-12-06T21:00:36.619Z,30.83
2018-12-06T21:06:21.815Z,30.93
2018-12-06T21:08:54.705Z,27.47
2018-12-06T21:11:52.870Z,31.20
2018-12-06T21:14:28.854Z,30.90
2018-12-06T21:17:01.618Z,29.63
2018-12-06T21:19:34.727Z,29.60
2018-12-06T21:24:55.357Z,27.57
2018-12-06T21:27:27.958Z,27.73
2018-12-06T21:30:00.907Z,27.20
2018-12-06T21:35:38.411Z,27.50
2018-12-06T21:38:10.984Z,27.70
2018-12-06T21:40:48.265Z,26.83
2018-12-06T21:43:20.804Z,27.67
2018-12-06T21:45:54.039Z,29.67
2018-12-06T21:48:29.284Z,28.97
2018-12-06T21:51:04.258Z,27.87
2018-12-06T21:53:39.012Z,25.43
2018-12-06T21:56:13.835Z,26.70
2018-12-06T21:58:44.359Z,25.30
2018-12-06T22:01:19.740Z,26.23
2018-12-06T22:03:52.142Z,25.73
2018-12-06T22:09:30.819Z,24.30
2018-12-06T22:12:16.180Z,25.60
2018-12-06T22:17:57.279Z,23.17
2018-12-06T22:20:32.095Z,25.97
2018-12-06T22:23:03.821Z,25.30
2018-12-06T22:25:33.135Z,26.30
2018-12-06T22:28:02.439Z,27.17
2018-12-06T22:30:33.076Z,26.63
2018-12-06T22:33:02.397Z,29.07
2018-12-06T22:35:31.714Z,26.67
2018-12-06T22:38:01.070Z,25.13
2018-12-06T22:40:40.961Z,27.10
2018-12-06T22:43:10.279Z,25.77
2018-12-06T22:46:11.163Z,27.30
2018-12-06T22:48:41.617Z,24.50
2018-12-06T22:51:14.931Z,23.50
2018-12-06T22:53:55.407Z,23.37
2018-12-06T22:56:24.948Z,24.33
2018-12-06T22:58:54.406Z,22.17
2018-12-06T23:01:29.139Z,21.80
2018-12-06T23:03:58.470Z,20.43
2018-12-06T23:06:27.869Z,19.20
2018-12-06T23:08:58.288Z,19.03
2018-12-06T23:11:27.639Z,19.63
2018-12-06T23:13:56.991Z,17.57
2018-12-06T23:16:40.191Z,17.23
2018-12-06T23:19:09.545Z,16.47
2018-12-06T23:21:38.826Z,17.27
2018-12-06T23:24:08.107Z,16.73
2018-12-06T23:26:37.743Z,16.53
2018-12-06T23:32:10.322Z,16.93
2018-12-06T23:34:51.588Z,17.57
2018-12-06T23:37:23.068Z,16.30
2018-12-06T23:42:54.988Z,17.07
2018-12-06T23:45:24.316Z,18.03
2018-12-06T23:51:12.654Z,20.97
2018-12-06T23:53:41.962Z,17.27
2018-12-06T23:56:11.331Z,16.50
2018-12-06T23:58:40.627Z,20.03
